createdAt,value
2018-10-07T00:02:07.252Z,88.61
2018-10-07T00:04:34.921Z,88.72
2018-10-07T00:07:02.540Z,88.66
2018-10-07T00:09:30.173Z,88.50
2018-10-07T00:11:57.813Z,89.18
2018-10-07T00:14:25.427Z,89.21
2018-10-07T00:16:53.089Z,88.89
2018-10-07T00:19:20.720Z,89.27
2018-10-07T00:21:48.476Z,89.27
2018-10-07T00:24:16.092Z,89.15
2018-10-07T00:26:43.755Z,89.33
2018-10-07T00:29:11.398Z,88.95
2018-10-07T00:31:44.590Z,88.92
2018-10-07T00:34:12.262Z,89.07
2018-10-07T00:36:39.920Z,88.77
2018-10-07T00:39:08.993Z,89.33
2018-10-07T00:41:36.637Z,89.92
2018-10-07T00:44:04.297Z,90.22
2018-10-07T00:46:31.989Z,90.29
2018-10-07T00:48:59.691Z,90.36
2018-10-07T00:51:27.372Z,90.03
2018-10-07T00:53:54.992Z,89.70
2018-10-07T00:56:22.702Z,90.19
2018-10-07T00:58:50.464Z,89.86
2018-10-07T01:01:18.123Z,90.06
2018-10-07T01:03:45.775Z,90.32
2018-10-07T01:06:13.460Z,90.36
2018-10-07T01:08:41.105Z,90.67
2018-10-07T01:11:08.779Z,90.46
2018-10-07T01:13:36.428Z,90.34
2018-10-07T01:16:04.096Z,89.90
2018-10-07T01:18:31.776Z,89.88
2018-10-07T01:20:59.651Z,89.62
2018-10-07T01:23:27.284Z,90.05
2018-10-07T01:25:54.927Z,89.87
2018-10-07T01:28:22.612Z,89.54
2018-10-07T01:30:50.277Z,89.67
2018-10-07T01:33:17.932Z,90.07
2018-10-07T01:35:45.585Z,89.92
2018-10-07T01:38:13.262Z,89.69
2018-10-07T01:40:40.884Z,89.42
2018-10-07T01:43:08.511Z,89.95
2018-10-07T01:45:36.167Z,90.37
2018-10-07T01:48:03.817Z,89.98
2018-10-07T01:50:31.478Z,89.77
2018-10-07T01:52:59.200Z,90.08
2018-10-07T01:55:26.900Z,90.44
2018-10-07T01:57:54.516Z,90.35
2018-10-07T02:00:22.190Z,90.37
2018-10-07T02:02:49.797Z,90.44
2018-10-07T02:05:17.457Z,89.79
2018-10-07T02:07:45.121Z,90.18
2018-10-07T02:10:12.736Z,89.83
2018-10-07T02:12:40.369Z,89.85
2018-10-07T02:15:08.018Z,89.47
2018-10-07T02:17:35.681Z,89.74
2018-10-07T02:20:03.502Z,89.12
2018-10-07T02:22:31.138Z,89.72
2018-10-07T02:24:58.764Z,89.42
2018-10-07T02:27:26.425Z,89.53
2018-10-07T02:29:54.092Z,89.84
2018-10-07T02:32:21.801Z,89.28
2018-10-07T02:34:49.421Z,88.94
2018-10-07T02:37:17.085Z,89.04
2018-10-07T02:39:44.753Z,89.88
2018-10-07T02:42:12.365Z,90.02
2018-10-07T02:44:40.029Z,90.17
2018-10-07T02:47:07.656Z,89.84
2018-10-07T02:49:35.286Z,89.54
2018-10-07T02:52:03.181Z,89.89
2018-10-07T02:54:31.030Z,90.41
2018-10-07T02:56:58.694Z,90.60
2018-10-07T02:59:26.551Z,90.13
2018-10-07T03:01:54.401Z,89.88
2018-10-07T03:04:22.054Z,89.78
2018-10-07T03:06:49.691Z,89.82
2018-10-07T03:09:17.344Z,89.99
2018-10-07T03:11:44.971Z,90.21
2018-10-07T03:14:12.641Z,90.44
2018-10-07T03:16:40.292Z,90.15
2018-10-07T03:19:07.939Z,89.89
2018-10-07T03:21:35.590Z,89.79
2018-10-07T03:24:03.216Z,90.01
2018-10-07T03:26:30.924Z,89.92
2018-10-07T03:28:58.549Z,90.19
2018-10-07T03:31:26.193Z,90.22
2018-10-07T03:33:53.857Z,89.71
2018-10-07T03:36:21.469Z,89.76
2018-10-07T03:38:49.159Z,89.79
2018-10-07T03:41:16.863Z,89.19
2018-10-07T03:43:44.472Z,89.10
2018-10-07T03:46:12.177Z,89.86
2018-10-07T03:48:39.780Z,89.65
2018-10-07T03:51:07.418Z,89.71
2018-10-07T03:53:35.085Z,89.56
2018-10-07T03:56:02.730Z,89.32
2018-10-07T03:58:30.365Z,89.57
2018-10-07T04:00:58.095Z,89.87
2018-10-07T04:03:25.795Z,89.80
2018-10-07T04:05:53.476Z,89.53
2018-10-07T04:08:21.136Z,89.70
2018-10-07T04:10:48.785Z,89.38
2018-10-07T04:13:16.424Z,89.47
2018-10-07T04:15:44.061Z,89.04
2018-10-07T04:18:11.721Z,88.90
2018-10-07T04:20:39.479Z,89.53
2018-10-07T04:23:07.115Z,89.32
2018-10-07T04:25:34.733Z,89.80
2018-10-07T04:28:02.377Z,89.67
2018-10-07T04:30:30.010Z,90.02
2018-10-07T04:32:57.673Z,89.98
2018-10-07T04:35:25.318Z,89.83
2018-10-07T04:37:52.964Z,89.76
2018-10-07T04:40:20.673Z,90.93
2018-10-07T04:42:48.325Z,91.12
2018-10-07T04:45:15.938Z,90.67
2018-10-07T04:47:43.584Z,89.98
2018-10-07T04:50:11.196Z,90.30
2018-10-07T04:52:38.820Z,90.03
2018-10-07T04:55:06.461Z,89.63
2018-10-07T04:57:34.077Z,89.97
2018-10-07T05:00:01.739Z,89.66
2018-10-07T05:02:29.368Z,90.45
2018-10-07T05:04:57.137Z,90.14
2018-10-07T05:07:25.065Z,90.41
2018-10-07T05:10:02.681Z,90.35
2018-10-07T05:12:30.489Z,90.60
2018-10-07T05:14:58.641Z,90.63
2018-10-07T05:17:26.436Z,90.49
2018-10-07T05:19:54.191Z,90.92
2018-10-07T05:22:21.873Z,91.00
2018-10-07T05:24:49.520Z,90.69
2018-10-07T05:27:17.297Z,90.80
2018-10-07T05:29:44.935Z,90.58
2018-10-07T05:32:12.566Z,90.72
2018-10-07T05:34:40.252Z,90.81
2018-10-07T05:37:07.874Z,90.89
2018-10-07T05:39:35.475Z,90.15
2018-10-07T05:42:03.121Z,90.10
2018-10-07T05:44:30.834Z,89.77
2018-10-07T05:46:58.480Z,89.76
2018-10-07T05:49:26.095Z,89.62
2018-10-07T05:51:53.713Z,89.80
2018-10-07T05:54:21.502Z,89.53
2018-10-07T05:56:49.117Z,89.33
2018-10-07T05:59:16.896Z,89.80
2018-10-07T06:01:45.361Z,89.18
2018-10-07T06:04:33.904Z,89.67
2018-10-07T06:07:02.676Z,89.62
2018-10-07T06:09:34.013Z,89.78
2018-10-07T06:12:01.957Z,89.78
2018-10-07T06:14:40.733Z,90.31
2018-10-07T06:17:08.402Z,90.37
2018-10-07T06:19:36.096Z,90.71
2018-10-07T06:22:04.534Z,90.80
2018-10-07T06:24:32.705Z,90.60
2018-10-07T06:27:00.548Z,90.63
2018-10-07T06:29:28.237Z,91.05
2018-10-07T06:31:55.965Z,90.91
2018-10-07T06:34:24.015Z,90.68
2018-10-07T06:36:51.769Z,91.07
2018-10-07T06:39:19.401Z,91.58
2018-10-07T06:41:47.173Z,91.64
2018-10-07T06:44:14.831Z,91.95
2018-10-07T06:46:42.581Z,92.00
2018-10-07T06:49:10.232Z,92.12
2018-10-07T06:51:37.897Z,91.47
2018-10-07T06:54:05.845Z,91.00
2018-10-07T06:56:33.933Z,90.89
2018-10-07T06:59:01.574Z,90.69
2018-10-07T07:01:29.197Z,89.33
2018-10-07T07:03:56.849Z,89.62
2018-10-07T07:06:24.522Z,89.16
2018-10-07T07:08:52.177Z,87.51
2018-10-07T07:11:19.829Z,88.48
2018-10-07T07:13:47.454Z,88.31
2018-10-07T07:16:15.073Z,86.62
2018-10-07T07:18:42.745Z,85.22
2018-10-07T07:21:11.177Z,85.77
2018-10-07T07:23:38.837Z,84.46
2018-10-07T07:26:06.521Z,84.54
2018-10-07T07:28:34.166Z,82.32
2018-10-07T07:31:01.810Z,82.15
2018-10-07T07:33:29.463Z,80.99
2018-10-07T07:35:57.072Z,81.52
2018-10-07T07:38:24.729Z,80.04
2018-10-07T07:40:52.353Z,80.60
2018-10-07T07:43:20.041Z,78.96
2018-10-07T07:45:47.669Z,79.58
2018-10-07T07:48:15.345Z,79.58
2018-10-07T07:50:43.069Z,77.70
2018-10-07T07:53:10.689Z,77.50
2018-10-07T07:55:38.318Z,74.03
2018-10-07T07:58:05.985Z,73.56
2018-10-07T08:00:33.648Z,71.74
2018-10-07T08:03:01.284Z,72.40
2018-10-07T08:05:29.164Z,73.18
2018-10-07T08:07:56.834Z,70.80
2018-10-07T08:10:24.441Z,69.74
2018-10-07T08:12:52.049Z,70.10
2018-10-07T08:15:19.686Z,66.01
2018-10-07T08:17:47.346Z,68.43
2018-10-07T08:20:15.197Z,68.01
2018-10-07T08:22:42.825Z,68.63
2018-10-07T08:25:10.450Z,68.76
2018-10-07T08:27:38.399Z,65.11
2018-10-07T08:30:06.174Z,66.00
2018-10-07T08:32:33.813Z,66.41
2018-10-07T08:35:01.529Z,65.22
2018-10-07T08:37:29.195Z,64.09
2018-10-07T08:39:56.872Z,64.75
2018-10-07T08:42:24.552Z,63.03
2018-10-07T08:44:52.177Z,59.20
2018-10-07T08:47:19.823Z,60.51
2018-10-07T08:49:47.464Z,63.07
2018-10-07T08:52:15.137Z,62.80
2018-10-07T08:54:42.789Z,61.66
2018-10-07T08:57:10.413Z,60.29
2018-10-07T08:59:38.105Z,61.53
2018-10-07T09:02:05.761Z,61.46
2018-10-07T09:04:33.393Z,61.93
2018-10-07T09:07:01.126Z,56.32
2018-10-07T09:09:28.765Z,60.46
2018-10-07T09:11:56.409Z,56.79
2018-10-07T09:14:24.081Z,57.00
2018-10-07T09:16:51.739Z,56.95
2018-10-07T09:19:19.372Z,56.79
2018-10-07T09:21:47.078Z,58.67
2018-10-07T09:24:14.732Z,59.10
2018-10-07T09:26:42.411Z,58.68
2018-10-07T09:29:10.154Z,58.08
2018-10-07T09:31:37.854Z,56.80
2018-10-07T09:34:05.569Z,57.09
2018-10-07T09:36:33.200Z,57.46
2018-10-07T09:39:00.856Z,57.73
2018-10-07T09:41:28.461Z,57.58
2018-10-07T09:43:56.101Z,57.43
2018-10-07T09:46:24.013Z,58.22
2018-10-07T09:48:51.980Z,58.39
2018-10-07T09:51:19.601Z,59.15
2018-10-07T09:53:47.243Z,58.07
2018-10-07T09:56:14.870Z,58.63
2018-10-07T09:58:42.513Z,57.36
2018-10-07T10:01:10.218Z,57.39
2018-10-07T10:03:37.865Z,54.19
2018-10-07T10:06:05.497Z,52.51
2018-10-07T10:08:33.472Z,49.50
2018-10-07T10:11:01.139Z,53.04
2018-10-07T10:13:28.765Z,50.40
2018-10-07T10:15:56.401Z,52.94
2018-10-07T10:18:25.881Z,51.20
2018-10-07T10:21:06.053Z,51.96
2018-10-07T10:24:42.979Z,53.16
2018-10-07T10:28:16.701Z,53.17
2018-10-07T10:30:55.424Z,52.30
2018-10-07T10:33:28.052Z,49.26
2018-10-07T10:36:03.616Z,53.16
2018-10-07T10:38:39.204Z,52.46
2018-10-07T10:41:24.940Z,51.23
2018-10-07T10:43:57.753Z,50.94
2018-10-07T10:46:30.149Z,46.59
2018-10-07T10:49:18.813Z,46.29
2018-10-07T10:51:52.298Z,49.04
2018-10-07T10:54:31.997Z,46.05
2018-10-07T10:57:09.034Z,48.44
2018-10-07T10:59:42.373Z,46.57
2018-10-07T11:02:32.568Z,48.41
2018-10-07T11:05:07.737Z,45.88
2018-10-07T11:08:00.122Z,48.54
2018-10-07T11:10:33.845Z,48.70
2018-10-07T11:13:06.273Z,47.04
2018-10-07T11:15:39.627Z,46.75
2018-10-07T11:18:14.713Z,46.60
2018-10-07T11:24:02.520Z,47.75
2018-10-07T11:26:36.791Z,48.53
2018-10-07T11:29:14.493Z,48.58
2018-10-07T11:31:51.397Z,44.40
2018-10-07T11:34:29.425Z,47.35
2018-10-07T11:37:05.137Z,46.86
2018-10-07T11:40:45.459Z,47.90
2018-10-07T11:44:20.993Z,49.15
2018-10-07T11:47:00.827Z,49.79
2018-10-07T11:49:34.801Z,49.17
2018-10-07T11:52:07.212Z,48.78
2018-10-07T11:55:08.057Z,51.09
2018-10-07T11:57:35.705Z,50.49
2018-10-07T12:00:03.637Z,50.32
2018-10-07T12:02:31.292Z,49.92
2018-10-07T12:04:58.921Z,51.37
2018-10-07T12:07:28.265Z,51.06
2018-10-07T12:09:55.909Z,51.43
2018-10-07T12:12:23.540Z,51.76
2018-10-07T12:14:51.209Z,51.72
2018-10-07T12:17:18.812Z,51.39
2018-10-07T12:19:46.437Z,50.97
2018-10-07T12:22:14.213Z,51.14
2018-10-07T12:24:41.838Z,51.43
2018-10-07T12:27:10.469Z,50.24
2018-10-07T12:29:38.192Z,50.92
2018-10-07T12:32:06.119Z,51.78
2018-10-07T12:34:33.761Z,51.94
2018-10-07T12:37:01.408Z,52.64
2018-10-07T12:39:29.070Z,51.77
2018-10-07T12:41:56.733Z,52.43
2018-10-07T12:44:24.344Z,51.05
2018-10-07T12:46:51.967Z,50.30
2018-10-07T12:49:19.621Z,48.55
2018-10-07T12:51:47.244Z,48.10
2018-10-07T12:54:14.876Z,48.96
2018-10-07T12:56:42.536Z,49.23
2018-10-07T12:59:10.152Z,49.34
2018-10-07T13:01:37.799Z,50.78
2018-10-07T13:04:05.486Z,51.51
2018-10-07T13:06:33.113Z,52.19
2018-10-07T13:09:00.761Z,53.04
2018-10-07T13:11:28.389Z,53.35
2018-10-07T13:13:56.030Z,54.09
2018-10-07T13:16:23.965Z,54.58
2018-10-07T13:18:51.613Z,54.37
2018-10-07T13:21:19.241Z,53.58
2018-10-07T13:23:46.881Z,53.12
2018-10-07T13:26:14.529Z,53.84
2018-10-07T13:28:42.180Z,54.51
2018-10-07T13:31:10.249Z,54.63
2018-10-07T13:33:37.959Z,55.28
2018-10-07T13:36:05.715Z,56.26
2018-10-07T13:38:33.567Z,56.62
2018-10-07T13:41:01.188Z,56.97
2018-10-07T13:43:28.838Z,57.24
2018-10-07T13:45:56.473Z,57.29
2018-10-07T13:48:24.129Z,57.55
2018-10-07T13:50:51.889Z,57.70
2018-10-07T13:53:19.564Z,57.29
2018-10-07T13:55:47.185Z,58.67
2018-10-07T13:58:15.020Z,58.57
2018-10-07T14:00:42.641Z,58.74
2018-10-07T14:03:10.338Z,58.93
2018-10-07T14:05:37.963Z,58.77
2018-10-07T14:08:05.656Z,58.95
2018-10-07T14:10:33.357Z,59.28
2018-10-07T14:13:00.985Z,58.87
2018-10-07T14:15:28.597Z,59.21
2018-10-07T14:17:56.257Z,59.62
2018-10-07T14:20:23.893Z,59.66
2018-10-07T14:22:51.549Z,60.35
2018-10-07T14:25:19.197Z,60.34
2018-10-07T14:27:46.849Z,60.39
2018-10-07T14:30:14.538Z,60.87
2018-10-07T14:32:42.149Z,60.52
2018-10-07T14:35:09.807Z,60.85
2018-10-07T14:37:37.470Z,61.24
2018-10-07T14:40:05.182Z,61.65
2018-10-07T14:42:32.859Z,61.96
2018-10-07T14:45:00.501Z,62.01
2018-10-07T14:47:28.191Z,62.48
2018-10-07T14:49:55.885Z,62.74
2018-10-07T14:52:23.537Z,63.14
2018-10-07T14:54:51.226Z,63.51
2018-10-07T14:57:18.861Z,63.10
2018-10-07T14:59:46.482Z,63.64
2018-10-07T15:02:14.176Z,63.93
2018-10-07T15:04:41.807Z,63.91
2018-10-07T15:07:09.444Z,64.53
2018-10-07T15:09:37.175Z,64.65
2018-10-07T15:12:04.803Z,65.56
2018-10-07T15:14:32.461Z,65.86
2018-10-07T15:17:00.131Z,66.71
2018-10-07T15:19:27.777Z,67.19
2018-10-07T15:21:55.472Z,67.34
2018-10-07T15:24:23.125Z,67.62
2018-10-07T15:26:50.734Z,67.71
2018-10-07T15:29:18.442Z,68.38
2018-10-07T15:31:48.794Z,68.52
2018-10-07T15:34:17.167Z,68.69
2018-10-07T15:36:45.451Z,69.32
2018-10-07T15:39:13.647Z,69.26
2018-10-07T15:41:43.071Z,69.50
2018-10-07T15:44:11.041Z,70.08
2018-10-07T15:46:44.603Z,70.35
2018-10-07T15:49:12.269Z,71.38
2018-10-07T15:51:40.085Z,71.06
2018-10-07T15:54:09.044Z,71.35
2018-10-07T15:56:38.026Z,71.36
2018-10-07T15:59:12.589Z,71.48
2018-10-07T16:01:43.776Z,72.38
2018-10-07T16:04:12.318Z,72.63
2018-10-07T16:06:39.981Z,72.86
2018-10-07T16:09:08.845Z,73.76
2018-10-07T16:11:36.596Z,74.33
2018-10-07T16:14:04.294Z,75.01
2018-10-07T16:16:31.940Z,74.60
2018-10-07T16:18:59.707Z,73.58
2018-10-07T16:21:27.921Z,74.02
2018-10-07T16:23:55.906Z,74.34
2018-10-07T16:26:23.696Z,74.50
2018-10-07T16:28:51.269Z,74.12
2018-10-07T16:31:18.904Z,75.46
2018-10-07T16:33:46.625Z,75.66
2018-10-07T16:36:14.617Z,75.69
2018-10-07T16:38:42.244Z,74.88
2018-10-07T16:41:09.909Z,75.43
2018-10-07T16:43:38.524Z,77.59
2018-10-07T16:46:06.506Z,78.13
2018-10-07T16:48:34.154Z,79.45
2018-10-07T16:51:01.805Z,78.52
2018-10-07T16:53:30.193Z,77.19
2018-10-07T16:55:58.120Z,77.37
2018-10-07T16:58:25.889Z,78.82
2018-10-07T17:00:53.533Z,79.34
2018-10-07T17:03:21.189Z,79.20
2018-10-07T17:05:49.829Z,80.84
2018-10-07T17:08:17.692Z,79.67
2018-10-07T17:10:45.443Z,81.25
2018-10-07T17:13:13.246Z,81.86
2018-10-07T17:15:40.805Z,81.16
2018-10-07T17:18:08.725Z,81.20
2018-10-07T17:20:36.352Z,79.68
2018-10-07T17:23:04.054Z,79.97
2018-10-07T17:25:31.839Z,80.59
2018-10-07T17:27:59.565Z,80.03
2018-10-07T17:30:27.218Z,81.21
2018-10-07T17:32:54.918Z,80.62
2018-10-07T17:35:22.634Z,80.15
2018-10-07T17:37:50.344Z,79.68
2018-10-07T17:40:18.029Z,80.63
2018-10-07T17:42:45.760Z,80.44
2018-10-07T17:45:13.316Z,79.60
2018-10-07T17:47:41.005Z,81.20
2018-10-07T17:50:08.690Z,80.98
2018-10-07T17:52:36.365Z,82.10
2018-10-07T17:55:04.116Z,82.04
2018-10-07T17:57:31.849Z,83.56
2018-10-07T17:59:59.497Z,84.24
2018-10-07T18:02:27.148Z,84.57
2018-10-07T18:04:54.903Z,85.03
2018-10-07T18:07:22.812Z,83.95
2018-10-07T18:09:50.461Z,84.25
2018-10-07T18:12:18.113Z,84.07
2018-10-07T18:14:45.729Z,83.44
2018-10-07T18:17:13.430Z,83.10
2018-10-07T18:19:41.053Z,84.06
2018-10-07T18:22:08.669Z,83.47
2018-10-07T18:24:36.384Z,83.58
2018-10-07T18:27:04.021Z,84.21
2018-10-07T18:29:31.690Z,84.69
2018-10-07T18:31:59.337Z,83.65
2018-10-07T18:34:27.041Z,84.38
2018-10-07T18:36:54.751Z,84.87
2018-10-07T18:39:22.383Z,85.92
2018-10-07T18:41:50.026Z,85.70
2018-10-07T18:44:17.855Z,85.12
2018-10-07T18:46:45.501Z,85.87
2018-10-07T18:49:13.252Z,86.66
2018-10-07T18:51:41.237Z,85.99
2018-10-07T18:54:09.141Z,86.87
2018-10-07T18:56:36.898Z,87.13
2018-10-07T18:59:04.773Z,86.64
2018-10-07T19:01:32.574Z,86.22
2018-10-07T19:04:00.221Z,87.23
2018-10-07T19:06:28.090Z,86.96
2018-10-07T19:08:55.810Z,87.28
2018-10-07T19:11:23.497Z,87.51
2018-10-07T19:13:51.149Z,86.80
2018-10-07T19:16:18.785Z,85.67
2018-10-07T19:18:46.437Z,86.12
2018-10-07T19:21:14.327Z,86.53
2018-10-07T19:23:41.999Z,87.25
2018-10-07T19:26:09.696Z,86.80
2018-10-07T19:28:37.365Z,86.77
2018-10-07T19:31:05.249Z,87.01
2018-10-07T19:33:32.899Z,86.90
2018-10-07T19:36:00.541Z,87.41
2018-10-07T19:38:28.177Z,87.40
2018-10-07T19:40:55.869Z,86.92
2018-10-07T19:43:23.518Z,87.53
2018-10-07T19:45:51.238Z,87.05
2018-10-07T19:48:18.964Z,86.00
2018-10-07T19:50:46.616Z,86.91
2018-10-07T19:53:14.319Z,86.77
2018-10-07T19:55:42.002Z,86.96
2018-10-07T19:58:09.696Z,87.45
2018-10-07T20:00:37.465Z,86.75
2018-10-07T20:03:05.144Z,85.71
2018-10-07T20:05:32.917Z,86.15
2018-10-07T20:08:00.580Z,85.84
2018-10-07T20:10:28.474Z,85.92
2018-10-07T20:12:56.148Z,86.17
2018-10-07T20:15:23.874Z,85.96
2018-10-07T20:17:51.523Z,85.69
2018-10-07T20:20:19.174Z,84.66
2018-10-07T20:22:46.883Z,84.70
2018-10-07T20:25:14.536Z,85.54
2018-10-07T20:27:42.239Z,86.01
2018-10-07T20:30:10.233Z,84.18
2018-10-07T20:32:39.876Z,84.81
2018-10-07T20:35:07.533Z,85.60
2018-10-07T20:37:35.315Z,85.88
2018-10-07T20:40:03.198Z,85.56
2018-10-07T20:42:30.989Z,85.06
2018-10-07T20:44:59.101Z,84.33
2018-10-07T20:47:26.761Z,85.34
2018-10-07T20:49:54.421Z,86.32
2018-10-07T20:52:22.065Z,85.80
2018-10-07T20:54:49.750Z,85.02
2018-10-07T20:57:17.373Z,86.09
2018-10-07T20:59:45.053Z,87.10
2018-10-07T21:02:12.785Z,87.55
2018-10-07T21:04:40.592Z,87.02
2018-10-07T21:07:08.457Z,86.46
2018-10-07T21:09:36.101Z,87.99
2018-10-07T21:12:04.045Z,88.04
2018-10-07T21:14:31.805Z,88.35
2018-10-07T21:16:59.464Z,87.98
2018-10-07T21:19:27.101Z,87.28
2018-10-07T21:21:54.807Z,86.68
2018-10-07T21:24:22.507Z,85.29
2018-10-07T21:26:50.111Z,85.53
2018-10-07T21:29:17.977Z,85.97
2018-10-07T21:31:45.892Z,85.25
2018-10-07T21:34:13.586Z,85.19
2018-10-07T21:36:41.220Z,85.59
2018-10-07T21:39:09.793Z,86.49
2018-10-07T21:41:37.558Z,86.73
2018-10-07T21:44:05.145Z,86.62
2018-10-07T21:46:32.819Z,87.05
2018-10-07T21:49:00.469Z,86.41
2018-10-07T21:51:28.088Z,86.77
2018-10-07T21:53:55.723Z,87.20
2018-10-07T21:56:23.372Z,86.85
2018-10-07T21:58:51.050Z,86.12
2018-10-07T22:01:18.729Z,86.36
2018-10-07T22:03:46.366Z,87.38
2018-10-07T22:06:13.999Z,86.88
2018-10-07T22:08:41.701Z,86.64
2018-10-07T22:11:09.384Z,87.37
2018-10-07T22:13:37.033Z,87.11
2018-10-07T22:16:04.733Z,86.65
2018-10-07T22:18:32.360Z,86.69
2018-10-07T22:21:00.001Z,87.17
2018-10-07T22:23:27.656Z,86.71
2018-10-07T22:25:55.309Z,87.00
2018-10-07T22:28:22.988Z,87.00
2018-10-07T22:30:50.637Z,86.64
2018-10-07T22:33:18.267Z,86.56
2018-10-07T22:35:45.941Z,85.87
2018-10-07T22:38:13.600Z,86.36
2018-10-07T22:40:41.266Z,86.21
2018-10-07T22:43:08.933Z,86.17
2018-10-07T22:45:36.593Z,87.15
2018-10-07T22:48:04.271Z,87.36
2018-10-07T22:50:31.998Z,87.34
2018-10-07T22:52:59.625Z,87.52
2018-10-07T22:55:27.985Z,87.06
2018-10-07T22:57:55.642Z,86.80
2018-10-07T23:00:23.372Z,86.71
2018-10-07T23:02:51.198Z,85.69
2018-10-07T23:05:19.249Z,85.89
2018-10-07T23:07:47.512Z,86.57
2018-10-07T23:10:15.172Z,86.71
2018-10-07T23:12:43.035Z,86.89
2018-10-07T23:15:10.866Z,87.75
2018-10-07T23:17:38.491Z,87.81
2018-10-07T23:20:06.197Z,87.59
2018-10-07T23:22:33.877Z,86.92
2018-10-07T23:25:01.625Z,87.16
2018-10-07T23:27:29.291Z,86.15
2018-10-07T23:29:57.036Z,86.37
2018-10-07T23:32:24.674Z,86.08
2018-10-07T23:34:52.399Z,85.61
2018-10-07T23:37:20.232Z,86.63
2018-10-07T23:39:48.958Z,86.58
2018-10-07T23:42:16.861Z,88.19
2018-10-07T23:44:44.606Z,88.43
2018-10-07T23:47:12.391Z,88.06
2018-10-07T23:49:40.095Z,86.99
2018-10-07T23:52:08.370Z,86.62
2018-10-07T23:54:35.936Z,86.69
2018-10-07T23:57:03.774Z,86.35
2018-10-07T23:59:31.429Z,86.71
